Startpagina
METAR-TAF:

METAR-TAF

Vliegvelden :

Larnaca, Cyprus

Luchthaven Larnaca

breedte: 34-53N, lengte: 033-38E, hoogte: 2 m

Actueel weer

Dit bericht is 39 minuten geleden gemaakt, om 08:30 UTC
Wind 17 kt uit het zuidwesten
Temperatuur 28°C
Vochtigheid 48%
Druk 1014 hPa
Zicht 10 km of meer
Weinig wolken op 2500 ft

METAR: LCLK 230830Z 22017KT 9999 FEW025 28/16 Q1014 NOSIG

Tijdstip: 12:09 (09:09 UTC)

Verwachting

Dit bericht is 3 uur en het 39 minuten geleden gemaakt, om 05:30 UTC
Verwachting geldig van 23 om 06 UTC tot 24 om 06 UTC
Wind 8 kt uit het zuidzuidoosten
Zicht 10 km of meer
Verspreide wolken op 2500 ft
Wijzigt naar
van 23 om 09 UTC tot 23 om 12 UTC
Wind 16 kt uit het zuidzuidwesten
Wijzigt naar
van 23 om 17 UTC tot 23 om 20 UTC
Wind 7 kt uit het noordwesten

TAF: LCLK 230530Z 2306/2406 15008KT 9999 SCT025 BECMG 2309/2312 21016KT BECMG 2317/2320 32007KT

Waarnemingen en weersverwachtingen van meer dan 4000 vliegvelden (METAR en TAF).

De beschikbare stations zijn de gele en rode punten op de kaart.

Ga met uw muis naar het station om de naam te zien.

Klik dan om waarnemingen en weersverwachtingen te zien.

kaart wijzigen: klik op de groene knoppen met een zwart kruis om in te zoomen, op de groene knop met een streepje om uit te zoomen of op de groene pijlen voor aangrenzende kaarten.


METAR-TAF: